Time,TemperatureF,DewpointF,PressureIn,WindDirection,WindDirectionDegrees,WindSpeedMPH,WindSpeedGustMPH,Humidity,HourlyPrecipIn,Conditions,Clouds,dailyrainin,SoftwareType,DateUTC
2013-04-11 00:03:00,61.0,53.0,-100.00,North,10,5.0,12.0,75,-99.99,,,-99.99,,2013-04-11 04:03:00,
2013-04-11 00:13:00,60.0,54.0,-100.00,North,10,10.0,14.0,78,-99.99,,,-99.99,,2013-04-11 04:13:00,
2013-04-11 00:23:00,60.0,54.0,-100.00,North,10,10.0,14.0,78,-99.99,,,-99.99,,2013-04-11 04:23:00,
2013-04-11 00:33:00,60.0,54.0,-100.00,NNE,15,22.0,31.0,79,-99.99,,,-99.99,,2013-04-11 04:33:00,
2013-04-11 00:43:00,68.0,55.0,-100.00,North,10,18.0,27.0,64,-99.99,,,-99.99,,2013-04-11 04:43:00,
2013-04-11 00:52:00,68.0,55.0,-100.00,North,10,18.0,27.0,64,-99.99,,,-99.99,,2013-04-11 04:52:00,
2013-04-11 01:03:00,65.0,53.0,-100.00,NNE,15,13.0,22.0,66,-99.99,,,-99.99,,2013-04-11 05:03:00,
2013-04-11 01:13:00,64.0,53.0,-100.00,NNE,15,13.0,19.0,68,-99.99,,,-99.99,,2013-04-11 05:13:00,
2013-04-11 01:23:00,61.0,51.0,-100.00,NNE,15,9.0,17.0,71,-99.99,,,-99.99,,2013-04-11 05:23:00,
2013-04-11 01:32:00,61.0,51.0,-100.00,NNE,15,9.0,17.0,71,-99.99,,,-99.99,,2013-04-11 05:32:00,
2013-04-11 01:42:00,59.0,51.0,-100.00,North,10,14.0,20.0,74,-99.99,,,-99.99,,2013-04-11 05:42:00,
2013-04-11 01:52:00,59.0,51.0,-100.00,North,10,14.0,20.0,74,-99.99,,,-99.99,,2013-04-11 05:52:00,
2013-04-11 02:02:00,58.0,51.0,-100.00,NNE,15,9.0,15.0,76,-99.99,,,-99.99,,2013-04-11 06:02:00,
2013-04-11 02:12:00,59.0,52.0,-100.00,NNE,25,1.0,15.0,78,-99.99,,,-99.99,,2013-04-11 06:12:00,
2013-04-11 02:22:00,59.0,52.0,-100.00,NNE,25,1.0,15.0,78,-99.99,,,-99.99,,2013-04-11 06:22:00,
2013-04-11 02:32:00,58.0,51.0,-100.00,NNE,25,10.0,12.0,79,-99.99,,,-99.99,,2013-04-11 06:32:00,
2013-04-11 02:42:00,56.0,51.0,-100.00,NNE,20,11.0,14.0,81,-99.99,,,-99.99,,2013-04-11 06:42:00,
2013-04-11 02:52:00,56.0,51.0,-100.00,NNE,20,11.0,14.0,81,-99.99,,,-99.99,,2013-04-11 06:52:00,
2013-04-11 03:02:00,56.0,51.0,-100.00,NNE,25,8.0,12.0,82,-99.99,,,-99.99,,2013-04-11 07:02:00,
2013-04-11 03:12:00,58.0,52.0,-100.00,NNE,20,5.0,12.0,82,-99.99,,,-99.99,,2013-04-11 07:12:00,
2013-04-11 03:22:00,58.0,52.0,-100.00,NNE,20,5.0,12.0,82,-99.99,,,-99.99,,2013-04-11 07:22:00,
2013-04-11 03:32:00,58.0,52.0,-100.00,NNE,25,4.0,5.0,82,-99.99,,,-99.99,,2013-04-11 07:32:00,
2013-04-11 03:43:00,57.0,52.0,-100.00,NNE,25,5.0,7.0,82,-99.99,,,-99.99,,2013-04-11 07:43:00,
2013-04-11 03:52:00,57.0,52.0,-100.00,NNE,25,5.0,7.0,82,-99.99,,,-99.99,,2013-04-11 07:52:00,
2013-04-11 04:03:00,56.0,51.0,-100.00,NNE,25,9.0,12.0,82,-99.99,,,-99.99,,2013-04-11 08:03:00,
2013-04-11 04:12:00,56.0,51.0,-100.00,NNE,25,5.0,11.0,82,-99.99,,,-99.99,,2013-04-11 08:12:00,
2013-04-11 04:22:00,55.0,50.0,-100.00,NNE,25,9.0,12.0,82,-99.99,,,-99.99,,2013-04-11 08:22:00,
2013-04-11 04:32:00,55.0,50.0,-100.00,NNE,25,9.0,12.0,82,-99.99,,,-99.99,,2013-04-11 08:32:00,
2013-04-11 04:42:00,56.0,50.0,-100.00,NNE,20,10.0,13.0,82,-99.99,,,-99.99,,2013-04-11 08:42:00,
2013-04-11 04:52:00,56.0,50.0,-100.00,NNE,20,10.0,13.0,82,-99.99,,,-99.99,,2013-04-11 08:52:00,
2013-04-11 05:02:00,56.0,51.0,-100.00,NNE,20,10.0,14.0,82,-99.99,,,-99.99,,2013-04-11 09:02:00,
2013-04-11 05:12:00,57.0,52.0,-100.00,NNE,20,10.0,13.0,82,-99.99,,,-99.99,,2013-04-11 09:12:00,
2013-04-11 05:22:00,57.0,52.0,-100.00,NNE,20,10.0,13.0,82,-99.99,,,-99.99,,2013-04-11 09:22:00,
2013-04-11 05:33:00,58.0,52.0,-100.00,NNE,15,9.0,14.0,79,-99.99,,,-99.99,,2013-04-11 09:33:00,
2013-04-11 05:43:00,58.0,52.0,-100.00,NNE,15,9.0,14.0,79,-99.99,,,-99.99,,2013-04-11 09:43:00,
2013-04-11 06:03:00,59.0,52.0,-100.00,North,10,4.0,7.0,79,-99.99,,,-99.99,,2013-04-11 10:03:00,
2013-04-11 06:13:00,59.0,52.0,-100.00,North,10,2.0,4.0,79,-99.99,,,-99.99,,2013-04-11 10:13:00,
2013-04-11 06:23:00,59.0,52.0,-100.00,North,10,2.0,4.0,79,-99.99,,,-99.99,,2013-04-11 10:23:00,
2013-04-11 06:32:00,59.0,52.0,-100.00,NNE,20,0.0,2.0,80,-99.99,,,-99.99,,2013-04-11 10:32:00,
2013-04-11 06:42:00,59.0,52.0,-100.00,NNE,20,0.0,2.0,80,-99.99,,,-99.99,,2013-04-11 10:42:00,
2013-04-11 07:13:00,59.0,53.0,-100.00,NNE,25,3.0,4.0,82,-99.99,,,-99.99,,2013-04-11 11:13:00,
2013-04-11 07:23:00,59.0,53.0,-100.00,NNE,25,7.0,8.0,81,-99.99,,,-99.99,,2013-04-11 11:23:00,
2013-04-11 07:32:00,59.0,54.0,-100.00,NNE,25,5.0,7.0,82,-99.99,,,-99.99,,2013-04-11 11:32:00,
2013-04-11 07:43:00,58.0,52.0,-100.00,NNE,20,7.0,11.0,82,-99.99,,,-99.99,,2013-04-11 11:43:00,
2013-04-11 07:52:00,58.0,52.0,-100.00,NNE,20,7.0,11.0,82,-99.99,,,-99.99,,2013-04-11 11:52:00,
2013-04-11 08:02:00,58.0,52.0,-100.00,NNE,20,8.0,11.0,82,-99.99,,,-99.99,,2013-04-11 12:02:00,
2013-04-11 08:13:00,58.0,52.0,-100.00,NNE,15,4.0,8.0,81,-99.99,,,-99.99,,2013-04-11 12:13:00,
2013-04-11 08:23:00,58.0,52.0,-100.00,NNE,15,4.0,8.0,81,-99.99,,,-99.99,,2013-04-11 12:23:00,
2013-04-11 08:32:00,60.0,52.0,-100.00,North,10,2.0,7.0,77,-99.99,,,-99.99,,2013-04-11 12:32:00,
2013-04-11 08:43:00,61.0,52.0,-100.00,North,10,3.0,6.0,73,-99.99,,,-99.99,,2013-04-11 12:43:00,
2013-04-11 08:52:00,61.0,52.0,-100.00,North,10,3.0,6.0,73,-99.99,,,-99.99,,2013-04-11 12:52:00,
2013-04-11 09:02:00,61.0,52.0,-100.00,North,10,4.0,6.0,71,-99.99,,,-99.99,,2013-04-11 13:02:00,
2013-04-11 09:13:00,66.0,53.0,-100.00,North,5,0.0,6.0,63,-99.99,,,-99.99,,2013-04-11 13:13:00,
2013-04-11 09:23:00,66.0,53.0,-100.00,North,5,0.0,6.0,63,-99.99,,,-99.99,,2013-04-11 13:23:00,
2013-04-11 09:32:00,69.0,54.0,-100.00,North,5,0.0,2.0,57,-99.99,,,-99.99,,2013-04-11 13:32:00,
2013-04-11 09:43:00,70.0,54.0,-100.00,North,5,0.0,0.0,57,-99.99,,,-99.99,,2013-04-11 13:43:00,
2013-04-11 10:03:00,71.0,54.0,-100.00,North,5,5.0,7.0,56,-99.99,,,-99.99,,2013-04-11 14:03:00,
2013-04-11 10:13:00,69.0,54.0,-100.00,North,5,7.0,8.0,59,-99.99,,,-99.99,,2013-04-11 14:13:00,
2013-04-11 10:22:00,69.0,54.0,-100.00,North,5,7.0,8.0,59,-99.99,,,-99.99,,2013-04-11 14:22:00,
2013-04-11 10:33:00,69.0,54.0,-100.00,North,5,6.0,9.0,58,-99.99,,,-99.99,,2013-04-11 14:33:00,
2013-04-11 10:42:00,71.0,54.0,-100.00,North,5,7.0,9.0,56,-99.99,,,-99.99,,2013-04-11 14:42:00,
2013-04-11 10:52:00,71.0,54.0,-100.00,North,5,7.0,9.0,56,-99.99,,,-99.99,,2013-04-11 14:52:00,
2013-04-11 11:02:00,70.0,53.0,-100.00,North,5,8.0,10.0,54,-99.99,,,-99.99,,2013-04-11 15:02:00,
2013-04-11 11:12:00,70.0,53.0,-100.00,North,5,8.0,10.0,54,-99.99,,,-99.99,,2013-04-11 15:12:00,
2013-04-11 13:03:00,62.0,51.0,-100.00,North,5,13.0,15.0,66,-99.99,,,-99.99,,2013-04-11 17:03:00,
2013-04-11 13:13:00,62.0,51.0,-100.00,North,5,13.0,15.0,66,-99.99,,,-99.99,,2013-04-11 17:13:00,
2013-04-11 13:33:00,60.0,54.0,-100.00,North,5,19.0,27.0,79,-99.99,,,-99.99,,2013-04-11 17:33:00,
2013-04-11 13:43:00,60.0,55.0,-100.00,North,10,18.0,29.0,85,-99.99,,,-99.99,,2013-04-11 17:43:00,
2013-04-11 13:52:00,60.0,55.0,-100.00,North,10,18.0,29.0,85,-99.99,,,-99.99,,2013-04-11 17:52:00,
2013-04-11 14:03:00,59.0,55.0,-100.00,North,10,19.0,28.0,87,-99.99,,,-99.99,,2013-04-11 18:03:00,
2013-04-11 14:13:00,55.0,52.0,-100.00,North,5,22.0,29.0,90,-99.99,,,-99.99,,2013-04-11 18:13:00,
2013-04-11 14:23:00,55.0,52.0,-100.00,North,5,22.0,29.0,90,-99.99,,,-99.99,,2013-04-11 18:23:00,
2013-04-11 14:33:00,54.0,51.0,-100.00,North,5,21.0,29.0,90,-99.99,,,-99.99,,2013-04-11 18:33:00,
2013-04-11 14:43:00,54.0,51.0,-100.00,NNE,25,19.0,27.0,90,-99.99,,,-99.99,,2013-04-11 18:43:00,
2013-04-11 14:52:00,54.0,51.0,-100.00,NNE,25,19.0,27.0,90,-99.99,,,-99.99,,2013-04-11 18:52:00,
2013-04-11 15:01:00,53.0,50.0,-100.00,ENE,65,22.0,29.0,90,-99.99,,,-99.99,,2013-04-11 19:01:00,
2013-04-11 15:14:00,54.0,51.0,-100.00,ENE,60,19.0,26.0,90,-99.99,,,-99.99,,2013-04-11 19:14:00,
2013-04-11 15:33:00,53.0,50.0,-100.00,ENE,60,19.0,25.0,90,-99.99,,,-99.99,,2013-04-11 19:33:00,
2013-04-11 15:43:00,53.0,50.0,-100.00,ENE,65,22.0,29.0,90,-99.99,,,-99.99,,2013-04-11 19:43:00,
2013-04-11 15:53:00,53.0,50.0,-100.00,ENE,65,22.0,29.0,90,-99.99,,,-99.99,,2013-04-11 19:53:00,
2013-04-11 16:13:00,53.0,50.0,-100.00,East,85,23.0,30.0,90,-99.99,,,-99.99,,2013-04-11 20:13:00,
2013-04-11 16:22:00,53.0,50.0,-100.00,East,85,23.0,30.0,90,-99.99,,,-99.99,,2013-04-11 20:22:00,
2013-04-11 16:33:00,52.0,49.0,-100.00,ENE,75,24.0,32.0,90,-99.99,,,-99.99,,2013-04-11 20:33:00,
2013-04-11 16:43:00,52.0,49.0,-100.00,East,85,21.0,32.0,90,-99.99,,,-99.99,,2013-04-11 20:43:00,
2013-04-11 16:52:00,52.0,49.0,-100.00,East,85,21.0,32.0,90,-99.99,,,-99.99,,2013-04-11 20:52:00,
2013-04-11 17:03:00,52.0,49.0,-100.00,East,95,21.0,34.0,90,-99.99,,,-99.99,,2013-04-11 21:03:00,
2013-04-11 17:13:00,51.0,49.0,-100.00,East,90,23.0,34.0,90,-99.99,,,-99.99,,2013-04-11 21:13:00,
2013-04-11 17:23:00,51.0,49.0,-100.00,East,90,23.0,34.0,90,-99.99,,,-99.99,,2013-04-11 21:23:00,
2013-04-11 17:33:00,51.0,49.0,-100.00,East,100,24.0,35.0,90,-99.99,,,-99.99,,2013-04-11 21:33:00,
2013-04-11 17:43:00,51.0,49.0,-100.00,ESE,110,20.0,31.0,90,-99.99,,,-99.99,,2013-04-11 21:43:00,
2013-04-11 17:53:00,51.0,49.0,-100.00,ESE,110,20.0,31.0,90,-99.99,,,-99.99,,2013-04-11 21:53:00,
2013-04-11 18:03:00,51.0,48.0,-100.00,ESE,115,23.0,31.0,90,-99.99,,,-99.99,,2013-04-11 22:03:00,
2013-04-11 18:13:00,51.0,48.0,-100.00,ESE,120,22.0,34.0,89,-99.99,,,-99.99,,2013-04-11 22:13:00,
2013-04-11 18:23:00,51.0,48.0,-100.00,ESE,120,22.0,34.0,89,-99.99,,,-99.99,,2013-04-11 22:23:00,
2013-04-11 18:33:00,51.0,48.0,-100.00,SE,125,20.0,31.0,89,-99.99,,,-99.99,,2013-04-11 22:33:00,
2013-04-11 18:44:00,51.0,48.0,-100.00,SE,135,22.0,31.0,89,-99.99,,,-99.99,,2013-04-11 22:44:00,
2013-04-11 18:53:00,51.0,48.0,-100.00,SE,135,22.0,31.0,89,-99.99,,,-99.99,,2013-04-11 22:53:00,
2013-04-11 19:04:00,50.0,47.0,-100.00,SE,135,21.0,34.0,89,-99.99,,,-99.99,,2013-04-11 23:04:00,
2013-04-11 19:13:00,50.0,47.0,-100.00,SE,135,21.0,33.0,90,-99.99,,,-99.99,,2013-04-11 23:13:00,
2013-04-11 19:23:00,50.0,47.0,-100.00,SE,135,21.0,33.0,90,-99.99,,,-99.99,,2013-04-11 23:23:00,
2013-04-11 19:33:00,50.0,47.0,-100.00,ESE,120,21.0,31.0,90,-99.99,,,-99.99,,2013-04-11 23:33:00,
2013-04-11 19:43:00,50.0,47.0,-100.00,East,100,21.0,33.0,90,-99.99,,,-99.99,,2013-04-11 23:43:00,
2013-04-11 19:53:00,50.0,47.0,-100.00,East,100,21.0,33.0,90,-99.99,,,-99.99,,2013-04-11 23:53:00,
2013-04-11 20:02:00,49.0,47.0,-100.00,SSE,155,22.0,31.0,90,-99.99,,,-99.99,,2013-04-12 00:02:00,
2013-04-11 20:12:00,49.0,47.0,-100.00,South,180,23.0,32.0,91,-99.99,,,-99.99,,2013-04-12 00:12:00,
2013-04-11 20:22:00,49.0,47.0,-100.00,South,180,23.0,32.0,91,-99.99,,,-99.99,,2013-04-12 00:22:00,
2013-04-11 20:33:00,49.0,46.0,-100.00,South,180,22.0,34.0,91,-99.99,,,-99.99,,2013-04-12 00:33:00,
2013-04-11 20:42:00,49.0,46.0,-100.00,South,185,21.0,33.0,91,-99.99,,,-99.99,,2013-04-12 00:42:00,
2013-04-11 20:52:00,49.0,46.0,-100.00,South,185,21.0,33.0,91,-99.99,,,-99.99,,2013-04-12 00:52:00,
2013-04-11 21:03:00,49.0,46.0,-100.00,South,180,24.0,32.0,91,-99.99,,,-99.99,,2013-04-12 01:03:00,
2013-04-11 21:12:00,49.0,46.0,-100.00,South,175,18.0,29.0,91,-99.99,,,-99.99,,2013-04-12 01:12:00,
2013-04-11 21:22:00,49.0,46.0,-100.00,South,175,18.0,29.0,91,-99.99,,,-99.99,,2013-04-12 01:22:00,
2013-04-11 21:33:00,49.0,46.0,-100.00,South,175,17.0,29.0,91,-99.99,,,-99.99,,2013-04-12 01:33:00,
2013-04-11 21:42:00,49.0,46.0,-100.00,South,175,19.0,29.0,91,-99.99,,,-99.99,,2013-04-12 01:42:00,
2013-04-11 21:52:00,49.0,46.0,-100.00,South,175,19.0,29.0,91,-99.99,,,-99.99,,2013-04-12 01:52:00,
2013-04-11 22:03:00,48.0,46.0,-100.00,South,185,20.0,30.0,91,-99.99,,,-99.99,,2013-04-12 02:03:00,
2013-04-11 22:12:00,48.0,46.0,-100.00,SSW,200,22.0,28.0,91,-99.99,,,-99.99,,2013-04-12 02:12:00,
2013-04-11 22:22:00,48.0,46.0,-100.00,SSW,200,22.0,28.0,91,-99.99,,,-99.99,,2013-04-12 02:22:00,
2013-04-11 22:32:00,48.0,46.0,-100.00,South,190,23.0,31.0,91,-99.99,,,-99.99,,2013-04-12 02:32:00,
2013-04-11 22:42:00,48.0,46.0,-100.00,South,185,20.0,28.0,91,-99.99,,,-99.99,,2013-04-12 02:42:00,
2013-04-11 22:52:00,48.0,46.0,-100.00,South,185,20.0,28.0,91,-99.99,,,-99.99,,2013-04-12 02:52:00,
2013-04-11 23:02:00,48.0,46.0,-100.00,South,180,17.0,25.0,91,-99.99,,,-99.99,,2013-04-12 03:02:00,
2013-04-11 23:12:00,48.0,46.0,-100.00,South,190,18.0,24.0,91,-99.99,,,-99.99,,2013-04-12 03:12:00,
2013-04-11 23:22:00,48.0,46.0,-100.00,South,190,18.0,24.0,91,-99.99,,,-99.99,,2013-04-12 03:22:00,
2013-04-11 23:33:00,48.0,46.0,-100.00,South,180,19.0,27.0,91,-99.99,,,-99.99,,2013-04-12 03:33:00,
2013-04-11 23:43:00,48.0,46.0,-100.00,South,175,18.0,27.0,91,-99.99,,,-99.99,,2013-04-12 03:43:00,
2013-04-11 23:52:00,48.0,46.0,-100.00,South,175,18.0,27.0,91,-99.99,,,-99.99,,2013-04-12 03:52:00,